Rolla, Kansas
Current Conditions -  °F | °C
As of 3:53 PM on Sunday 25 Jan 2015 (Local Time) from KGUY Reporting Station
Clear Clear  
Wind Chill: 60°   Ceiling: Unl
Heat Index: 60°   Visibility: 10mi
Dew Point: 29°   Wind: 18mph
Humidity: 31%   Direction: 350°N
Pressure: 30.12"   Gusts: 24mph
Location:  37.12°N, 101.63°W
Report Text: KGUY 252153Z AUTO 35016G21KT 10SM CLR 16/M02 A3012 RMK AO2 PK WND 32028/2055 SLP186 T01561017
Loading
Personal Weather Stations






























Interactive Weather Map New forecast layout! Learn more

10-Day Weather Forecast

Advertisements
Track Severe Weather on mobile